Time;durP1;ratioP1;P1;durP2;ratioP2;P2;SDS_P1;SDS_P2;PMS_P1;PMS_P2;Temp;Humidity;BMP_temperature;BMP_pressure;BME280_temperature;BME280_humidity;BME280_pressure;Samples;Min_cycle;Max_cycle;Signal;HPM_P1;HPM_P2
2022/09/03 00:00:55;;;;;;;4.90;2.90;;;18.10;68.60;;;;;;4960713;28;20431;-72
2022/09/03 00:03:23;;;;;;;4.80;3.77;;;18.00;68.90;;;;;;4961509;28;20458;-70
2022/09/03 00:06:12;;;;;;;4.83;3.70;;;18.10;68.80;;;;;;4976469;28;20432;-70
2022/09/03 00:09:04;;;;;;;6.27;3.63;;;18.20;68.30;;;;;;5012953;28;20823;-72
2022/09/03 00:11:51;;;;;;;6.50;4.00;;;18.20;68.30;;;;;;5022003;28;20496;-70
2022/09/03 00:14:31;;;;;;;6.10;3.50;;;18.20;68.30;;;;;;5024778;28;20412;-71
2022/09/03 00:17:03;;;;;;;5.73;3.80;;;18.20;68.60;;;;;;5025611;28;20524;-70
2022/09/03 00:19:33;;;;;;;4.37;3.27;;;18.10;68.50;;;;;;5028305;28;20475;-70
2022/09/03 00:22:07;;;;;;;6.53;3.60;;;18.00;69.10;;;;;;5023533;28;20458;-70
2022/09/03 00:24:38;;;;;;;4.20;3.10;;;17.90;69.40;;;;;;5024450;28;20455;-69
2022/09/03 00:27:10;;;;;;;9.90;3.90;;;17.90;69.40;;;;;;5028037;28;20410;-72
2022/09/03 00:29:37;;;;;;;7.30;3.80;;;17.80;69.70;;;;;;5025496;28;20425;-74
2022/09/03 00:32:12;;;;;;;6.23;3.20;;;17.90;69.70;;;;;;5023845;28;20471;-70
2022/09/03 00:34:42;;;;;;;5.30;3.73;;;18.00;69.40;;;;;;5024118;28;20427;-72
2022/09/03 00:37:09;;;;;;;4.40;3.00;;;18.00;69.10;;;;;;5022060;28;21159;-70
2022/09/03 00:39:36;;;;;;;6.43;3.23;;;18.10;68.90;;;;;;5028978;28;20516;-70
2022/09/03 00:42:39;;;;;;;7.57;3.70;;;18.10;68.80;;;;;;5024726;28;20492;-70
2022/09/03 00:45:19;;;;;;;4.90;2.90;;;18.20;68.60;;;;;;5028827;28;20441;-72
2022/09/03 00:48:02;;;;;;;6.20;3.30;;;18.30;68.00;;;;;;5030817;28;20819;-72
2022/09/03 00:51:05;;;;;;;4.30;3.60;;;18.30;67.90;;;;;;5024604;28;20486;-71
2022/09/03 00:53:36;;;;;;;5.27;3.00;;;18.30;68.20;;;;;;5025101;28;20520;-69
2022/09/03 00:56:07;;;;;;;5.47;3.30;;;18.30;68.20;;;;;;5027890;28;20428;-69
2022/09/03 00:59:02;;;;;;;7.27;4.53;;;18.40;67.90;;;;;;5021737;28;20480;-70
2022/09/03 01:01:44;;;;;;;4.87;3.30;;;18.40;67.90;;;;;;5017166;28;20849;-70
2022/09/03 01:04:28;;;;;;;3.67;3.30;;;18.40;67.70;;;;;;5023611;28;20947;-69
2022/09/03 01:07:15;;;;;;;4.83;3.10;;;18.50;67.20;;;;;;5020608;28;20421;-73
2022/09/03 01:10:00;;;;;;;3.60;3.00;;;18.50;67.00;;;;;;5027278;28;20494;-71
2022/09/03 01:12:51;;;;;;;3.90;3.10;;;18.40;67.20;;;;;;5024764;28;20509;-71
2022/09/03 01:15:22;;;;;;;3.87;3.00;;;18.30;68.60;;;;;;5019794;28;20421;-71
2022/09/03 01:17:59;;;;;;;6.57;3.13;;;18.30;68.90;;;;;;5022541;28;20416;-69
2022/09/03 01:20:50;;;;;;;3.80;3.03;;;18.40;68.50;;;;;;5024349;28;20503;-70
2022/09/03 01:23:34;;;;;;;3.97;2.90;;;18.50;67.70;;;;;;5023892;28;20534;-70
2022/09/03 01:26:18;;;;;;;7.10;3.10;;;18.50;67.70;;;;;;5023610;28;20476;-70
2022/09/03 01:28:56;;;;;;;7.47;3.60;;;18.50;67.60;;;;;;5023981;28;20435;-70
2022/09/03 01:31:41;;;;;;;4.90;3.00;;;18.50;67.20;;;;;;5027371;28;20488;-70
2022/09/03 01:34:18;;;;;;;3.73;3.10;;;18.50;67.20;;;;;;5028785;28;20783;-73
2022/09/03 01:37:36;;;;;;;5.17;3.17;;;18.60;67.20;;;;;;5036753;28;20425;-71
2022/09/03 01:40:30;;;;;;;3.83;3.00;;;18.70;67.60;;;;;;5015355;28;21179;-70
2022/09/03 01:43:04;;;;;;;2.80;2.60;;;18.70;68.00;;;;;;5034628;28;20562;-70
2022/09/03 01:45:30;;;;;;;3.30;2.70;;;18.60;67.90;;;;;;5032721;28;20468;-70
2022/09/03 01:47:58;;;;;;;3.17;2.43;;;18.60;67.90;;;;;;5023940;28;20438;-71
2022/09/03 01:51:09;;;;;;;4.10;2.90;;;18.50;67.90;;;;;;5035584;28;20676;-71
2022/09/03 01:53:47;;;;;;;5.13;2.93;;;18.60;67.70;;;;;;5016869;28;20943;-73
2022/09/03 01:56:21;;;;;;;2.97;2.60;;;18.70;67.70;;;;;;5016612;28;20444;-71
2022/09/03 01:59:09;;;;;;;3.47;3.00;;;18.70;68.30;;;;;;5040593;28;20543;-70
2022/09/03 02:02:05;;;;;;;7.50;2.80;;;18.70;67.70;;;;;;5037108;28;20469;-71
2022/09/03 02:04:31;;;;;;;5.37;3.03;;;18.70;67.70;;;;;;5025271;28;20931;-72
2022/09/03 02:06:59;;;;;;;3.00;2.47;;;18.70;67.70;;;;;;5034995;28;20504;-72
2022/09/03 02:09:25;;;;;;;4.50;3.00;;;18.70;67.70;;;;;;5031309;28;20185;-70
2022/09/03 02:12:31;;;;;;;3.70;2.73;;;18.60;68.00;;;;;;5007950;28;20464;-71
2022/09/03 02:14:58;;;;;;;2.93;2.83;;;18.70;68.30;;;;;;5025253;28;20916;-71
2022/09/03 02:17:24;;;;;;;3.13;2.63;;;18.60;67.90;;;;;;5032025;28;20435;-71
2022/09/03 02:19:50;;;;;;;3.83;2.90;;;18.70;67.50;;;;;;5032167;28;20517;-71
2022/09/03 02:22:16;;;;;;;3.00;2.80;;;18.70;67.70;;;;;;5008419;28;20468;-70
2022/09/03 02:24:42;;;;;;;6.27;2.97;;;18.70;67.50;;;;;;5032578;28;20196;-73
2022/09/03 02:27:08;;;;;;;3.30;3.00;;;18.70;67.70;;;;;;5032292;28;20431;-71
2022/09/03 02:29:34;;;;;;;3.90;2.80;;;18.60;68.00;;;;;;5034209;28;20429;-71
2022/09/03 02:31:59;;;;;;;4.53;3.03;;;18.60;67.90;;;;;;5028321;28;20245;-70
2022/09/03 02:34:25;;;;;;;5.93;3.23;;;18.50;67.90;;;;;;5036130;28;20188;-70
2022/09/03 02:36:51;;;;;;;4.83;3.20;;;18.40;68.30;;;;;;5034018;28;20194;-70
2022/09/03 02:39:16;;;;;;;4.90;3.00;;;18.40;68.60;;;;;;5015670;28;20317;-71
2022/09/03 02:41:43;;;;;;;5.23;3.30;;;18.40;68.50;;;;;;5029248;28;21108;-70
2022/09/03 02:44:09;;;;;;;3.53;3.27;;;18.40;68.50;;;;;;5031037;28;20214;-70
2022/09/03 02:46:41;;;;;;;4.63;2.60;;;18.30;68.60;;;;;;5031777;28;20483;-71
2022/09/03 02:49:07;;;;;;;3.00;2.67;;;18.30;68.80;;;;;;5026596;28;20790;-72
2022/09/03 02:51:38;;;;;;;4.50;2.90;;;18.40;68.90;;;;;;5027668;28;20457;-71
2022/09/03 02:54:04;;;;;;;4.33;2.73;;;18.40;68.90;;;;;;5031546;28;20424;-72
2022/09/03 02:56:30;;;;;;;5.20;2.70;;;18.30;69.40;;;;;;5013588;28;20437;-71
2022/09/03 02:58:56;;;;;;;3.37;2.50;;;18.30;69.20;;;;;;5031848;28;20472;-71
2022/09/03 03:01:22;;;;;;;4.90;3.07;;;18.30;69.20;;;;;;5027306;28;20325;-72
2022/09/03 03:03:47;;;;;;;3.50;2.77;;;18.20;70.20;;;;;;5031654;28;20279;-70
2022/09/03 03:06:13;;;;;;;5.53;3.00;;;18.10;70.50;;;;;;5029549;28;20449;-71
2022/09/03 03:08:39;;;;;;;4.07;3.07;;;18.10;71.00;;;;;;5013154;28;20274;-72
2022/09/03 03:11:06;;;;;;;4.63;3.40;;;18.00;70.50;;;;;;5028544;28;20186;-71
2022/09/03 03:13:32;;;;;;;5.67;2.90;;;17.90;70.10;;;;;;5031263;28;20423;-71
2022/09/03 03:16:01;;;;;;;3.67;2.57;;;17.90;69.80;;;;;;5012867;28;20452;-73
2022/09/03 03:18:27;;;;;;;2.90;2.43;;;18.00;69.40;;;;;;5031022;28;20429;-72
2022/09/03 03:20:53;;;;;;;3.10;2.60;;;18.00;69.50;;;;;;5030444;28;20440;-70
2022/09/03 03:23:19;;;;;;;5.00;2.60;;;18.00;69.50;;;;;;5028911;28;20489;-74
2022/09/03 03:25:45;;;;;;;3.60;2.50;;;18.00;69.90;;;;;;5025973;28;20951;-75
2022/09/03 03:28:12;;;;;;;4.73;3.00;;;18.00;69.90;;;;;;5031063;28;20456;-75
2022/09/03 03:30:38;;;;;;;4.50;2.93;;;18.00;69.80;;;;;;5029576;28;20796;-74
2022/09/03 03:33:05;;;;;;;4.07;2.80;;;18.10;69.90;;;;;;5020269;28;20460;-72
2022/09/03 03:35:30;;;;;;;4.70;2.60;;;18.10;69.70;;;;;;5028962;28;20429;-75
2022/09/03 03:37:59;;;;;;;4.30;2.90;;;18.10;69.70;;;;;;5026425;28;20725;-72
2022/09/03 03:40:25;;;;;;;5.13;2.90;;;18.00;69.50;;;;;;5027948;28;20217;-73
2022/09/03 03:42:51;;;;;;;4.10;2.93;;;17.90;69.80;;;;;;5007258;28;20534;-71
2022/09/03 03:45:16;;;;;;;9.97;3.10;;;17.90;69.80;;;;;;5011333;28;20204;-72
2022/09/03 03:47:42;;;;;;;3.53;2.63;;;17.80;70.20;;;;;;5029417;28;20194;-72
2022/09/03 03:50:07;;;;;;;4.40;3.33;;;17.70;71.30;;;;;;5030597;28;20273;-71
2022/09/03 03:52:33;;;;;;;3.50;2.60;;;17.70;71.70;;;;;;5028410;28;20217;-73
2022/09/03 03:54:59;;;;;;;3.50;2.83;;;17.70;72.00;;;;;;5027394;28;20201;-73
2022/09/03 03:57:24;;;;;;;5.50;2.77;;;17.80;72.00;;;;;;5030427;28;20616;-73
2022/09/03 03:59:50;;;;;;;4.20;3.07;;;17.90;71.70;;;;;;5029678;28;20239;-70
2022/09/03 04:02:16;;;;;;;3.13;2.90;;;17.90;71.40;;;;;;5025183;28;20228;-73
2022/09/03 04:04:42;;;;;;;3.87;3.20;;;17.80;71.40;;;;;;5030125;28;20622;-73
2022/09/03 04:07:08;;;;;;;3.23;2.70;;;17.70;71.70;;;;;;5030603;28;20507;-72
2022/09/03 04:09:34;;;;;;;7.77;2.83;;;17.80;71.60;;;;;;5030984;28;20237;-72
2022/09/03 04:12:00;;;;;;;3.20;3.00;;;17.80;71.60;;;;;;5025305;28;20463;-71
2022/09/03 04:14:26;;;;;;;5.43;3.50;;;17.70;71.80;;;;;;5030319;28;20440;-73
2022/09/03 04:16:53;;;;;;;3.63;3.00;;;17.70;71.80;;;;;;5028579;28;20447;-72
2022/09/03 04:19:19;;;;;;;4.07;2.90;;;17.70;71.80;;;;;;5029538;28;20467;-74
2022/09/03 04:21:45;;;;;;;4.23;3.30;;;17.70;71.80;;;;;;5023664;28;20543;-73
2022/09/03 04:24:11;;;;;;;4.47;3.50;;;17.70;72.10;;;;;;5030637;28;20970;-73
2022/09/03 04:26:37;;;;;;;3.87;3.03;;;17.60;72.40;;;;;;5030704;28;20421;-71
2022/09/03 04:29:05;;;;;;;5.50;3.13;;;17.60;72.90;;;;;;5030803;28;20185;-72
2022/09/03 04:31:32;;;;;;;5.70;3.47;;;17.50;72.90;;;;;;5030271;28;20202;-72
2022/09/03 04:33:58;;;;;;;4.33;3.20;;;17.40;73.00;;;;;;5033875;28;20458;-73
2022/09/03 04:36:25;;;;;;;6.60;3.20;;;17.40;73.20;;;;;;5031760;28;20423;-74
2022/09/03 04:38:53;;;;;;;4.83;2.97;;;17.30;73.50;;;;;;5032200;28;20467;-73
2022/09/03 04:41:24;;;;;;;5.63;3.37;;;17.20;73.60;;;;;;5029879;28;20476;-72
2022/09/03 04:43:51;;;;;;;5.10;3.50;;;17.20;73.70;;;;;;5031072;28;20469;-72
2022/09/03 04:46:17;;;;;;;4.80;3.30;;;17.30;73.70;;;;;;5030280;28;20993;-72
2022/09/03 04:48:46;;;;;;;3.77;3.07;;;17.30;73.70;;;;;;5029970;28;20424;-74
2022/09/03 04:51:15;;;;;;;4.87;3.53;;;17.30;73.90;;;;;;5009535;28;20475;-73
2022/09/03 04:53:42;;;;;;;4.20;3.40;;;17.30;74.00;;;;;;5028228;28;20430;-74
2022/09/03 04:56:17;;;;;;;4.10;3.60;;;17.20;74.30;;;;;;5030616;28;20450;-73
2022/09/03 04:58:43;;;;;;;6.03;3.30;;;17.30;74.60;;;;;;5030022;28;20459;-72
2022/09/03 05:01:16;;;;;;;5.70;3.37;;;17.40;74.60;;;;;;5027959;28;20510;-72
2022/09/03 05:03:42;;;;;;;6.97;3.63;;;17.50;74.20;;;;;;5025601;28;20420;-73
2022/09/03 05:06:08;;;;;;;4.40;3.57;;;17.60;73.90;;;;;;5027025;28;20412;-73
2022/09/03 05:08:35;;;;;;;5.50;2.90;;;17.50;74.00;;;;;;5030221;28;20426;-74
2022/09/03 05:11:02;;;;;;;6.83;3.47;;;17.50;73.70;;;;;;5011281;28;20419;-71
2022/09/03 05:13:28;;;;;;;6.40;3.30;;;17.60;73.70;;;;;;5029758;28;20431;-73
2022/09/03 05:16:01;;;;;;;4.13;3.20;;;17.60;73.70;;;;;;5030179;28;20473;-73
2022/09/03 05:18:28;;;;;;;5.53;3.80;;;17.60;74.00;;;;;;5030722;28;20630;-74
2022/09/03 05:21:01;;;;;;;10.10;3.63;;;17.70;73.60;;;;;;5030532;28;20434;-74
2022/09/03 05:23:28;;;;;;;4.97;3.27;;;17.60;73.90;;;;;;5030446;28;20435;-73
2022/09/03 05:25:57;;;;;;;5.20;4.07;;;17.60;74.00;;;;;;5029600;28;20451;-73
2022/09/03 05:28:26;;;;;;;3.50;3.30;;;17.70;74.00;;;;;;5031154;28;20423;-72
2022/09/03 05:31:07;;;;;;;4.23;3.13;;;17.60;74.20;;;;;;5011335;28;20435;-73
2022/09/03 05:33:41;;;;;;;6.77;3.70;;;17.70;74.00;;;;;;5029209;28;20516;-72
2022/09/03 05:36:12;;;;;;;4.77;3.70;;;17.80;73.50;;;;;;5027776;28;20412;-71
2022/09/03 05:38:38;;;;;;;4.20;3.53;;;17.90;73.20;;;;;;5030659;28;20460;-71
2022/09/03 05:41:06;;;;;;;7.03;3.43;;;18.00;72.90;;;;;;5024376;28;20423;-72
2022/09/03 05:43:33;;;;;;;5.70;3.57;;;18.00;72.70;;;;;;5027779;28;20938;-72
2022/09/03 05:46:19;;;;;;;4.67;3.87;;;18.00;73.20;;;;;;5028499;28;20436;-72
2022/09/03 05:48:45;;;;;;;6.50;4.37;;;18.10;73.20;;;;;;5024180;28;20432;-74
2022/09/03 05:51:17;;;;;;;4.93;3.50;;;18.10;73.30;;;;;;5031079;28;20458;-72
2022/09/03 05:53:45;;;;;;;6.00;3.80;;;18.10;73.30;;;;;;5032678;28;20181;-72
2022/09/03 05:56:16;;;;;;;6.90;3.70;;;18.20;73.00;;;;;;5032884;28;20420;-72
2022/09/03 05:58:44;;;;;;;5.70;3.83;;;18.10;73.20;;;;;;5034381;28;20463;-74
2022/09/03 06:01:10;;;;;;;6.03;3.57;;;18.20;73.30;;;;;;5032571;28;20419;-72
2022/09/03 06:03:36;;;;;;;10.63;4.20;;;18.30;73.00;;;;;;5033267;28;20420;-73
2022/09/03 06:06:03;;;;;;;3.60;3.50;;;18.30;72.90;;;;;;5032526;28;20177;-73
2022/09/03 06:08:29;;;;;;;3.93;3.30;;;18.30;72.90;;;;;;5028793;28;20741;-71
2022/09/03 06:10:59;;;;;;;5.10;3.37;;;18.30;72.90;;;;;;5032306;28;20424;-74
2022/09/03 06:13:25;;;;;;;10.17;3.90;;;18.30;73.00;;;;;;5014974;28;20185;-74
2022/09/03 06:15:59;;;;;;;5.00;4.00;;;18.40;72.60;;;;;;5032626;28;20514;-73
2022/09/03 06:18:26;;;;;;;5.00;4.07;;;18.30;73.00;;;;;;5027513;28;20188;-73
2022/09/03 06:21:00;;;;;;;7.97;4.60;;;18.40;72.70;;;;;;5031341;28;20420;-73
2022/09/03 06:23:27;;;;;;;5.13;4.13;;;18.50;72.40;;;;;;5027761;28;20440;-72
2022/09/03 06:26:07;;;;;;;4.80;4.00;;;18.60;72.30;;;;;;5032101;28;20773;-74
2022/09/03 06:28:34;;;;;;;4.23;3.50;;;18.80;72.30;;;;;;5033067;28;20505;-74
2022/09/03 06:31:01;;;;;;;4.70;3.43;;;18.80;72.30;;;;;;5013635;28;20443;-72
2022/09/03 06:33:31;;;;;;;6.50;3.70;;;19.00;72.10;;;;;;5028417;28;20445;-72
2022/09/03 06:35:58;;;;;;;8.50;4.83;;;19.00;72.00;;;;;;5030123;28;20431;-74
2022/09/03 06:38:25;;;;;;;9.10;3.90;;;19.00;72.00;;;;;;5032594;28;20412;-72
2022/09/03 06:40:56;;;;;;;7.97;4.03;;;19.00;72.00;;;;;;5032157;28;20427;-75
2022/09/03 06:43:22;;;;;;;4.73;4.00;;;19.20;72.00;;;;;;5023856;28;20434;-74
2022/09/03 06:46:02;;;;;;;5.23;3.93;;;19.30;72.10;;;;;;5026065;28;20428;-71
2022/09/03 06:48:30;;;;;;;5.40;4.17;;;19.30;72.00;;;;;;5032501;28;20421;-72
2022/09/03 06:51:00;;;;;;;9.57;4.10;;;19.50;71.70;;;;;;5027089;28;20501;-72
2022/09/03 06:53:28;;;;;;;5.00;4.43;;;19.50;71.70;;;;;;5028364;28;20786;-73
2022/09/03 06:55:56;;;;;;;6.93;4.50;;;19.60;71.40;;;;;;5029677;28;20474;-72
2022/09/03 06:58:23;;;;;;;6.40;4.70;;;19.70;71.10;;;;;;5031894;28;20446;-71
2022/09/03 07:00:51;;;;;;;4.77;4.17;;;19.70;71.00;;;;;;5030829;28;20501;-72
2022/09/03 07:03:17;;;;;;;7.70;5.40;;;19.60;71.60;;;;;;5010571;28;20475;-72
2022/09/03 07:05:43;;;;;;;13.57;5.60;;;19.50;72.00;;;;;;5031310;28;20433;-71
2022/09/03 07:08:10;;;;;;;5.70;4.43;;;19.40;72.60;;;;;;5027961;28;20863;-72
2022/09/03 07:10:36;;;;;;;6.40;5.13;;;19.50;72.70;;;;;;5030722;28;20191;-74
2022/09/03 07:13:02;;;;;;;6.10;4.57;;;19.70;73.00;;;;;;5012150;28;20514;-70
2022/09/03 07:15:28;;;;;;;7.13;4.90;;;19.60;73.20;;;;;;5031421;28;20538;-71
2022/09/03 07:17:53;;;;;;;6.30;4.70;;;19.80;73.20;;;;;;5032288;28;20463;-72
2022/09/03 07:20:19;;;;;;;7.30;5.00;;;19.80;73.30;;;;;;5031533;28;20209;-73
2022/09/03 07:22:45;;;;;;;8.63;5.23;;;19.90;73.20;;;;;;5024884;28;20211;-73
2022/09/03 07:25:10;;;;;;;6.37;4.43;;;20.00;72.90;;;;;;5031257;28;20189;-70
2022/09/03 07:27:36;;;;;;;6.23;4.60;;;20.20;72.70;;;;;;5029887;28;20178;-72
2022/09/03 07:30:02;;;;;;;7.83;4.87;;;20.30;72.30;;;;;;5025272;28;20190;-73
2022/09/03 07:32:28;;;;;;;8.07;4.90;;;20.20;72.60;;;;;;5006435;28;20211;-73
2022/09/03 07:34:53;;;;;;;6.97;4.90;;;20.20;72.40;;;;;;5030482;28;20432;-73
2022/09/03 07:37:19;;;;;;;9.17;4.93;;;20.20;72.70;;;;;;5029248;28;20649;-72
2022/09/03 07:39:45;;;;;;;7.23;4.40;;;20.30;72.70;;;;;;5008032;28;20301;-71
2022/09/03 07:42:11;;;;;;;6.73;4.70;;;20.30;72.70;;;;;;5024143;28;20194;-75
2022/09/03 07:44:37;;;;;;;5.83;4.97;;;20.50;72.60;;;;;;5029248;28;20479;-72
2022/09/03 07:47:02;;;;;;;5.40;4.50;;;20.80;71.80;;;;;;5026902;28;20187;-73
2022/09/03 07:49:28;;;;;;;7.30;5.50;;;20.90;71.40;;;;;;5013608;28;20236;-72
2022/09/03 07:51:53;;;;;;;6.30;4.80;;;21.10;70.70;;;;;;5024847;28;20726;-72
2022/09/03 07:54:20;;;;;;;6.43;4.90;;;21.20;70.40;;;;;;5029233;28;20186;-73
2022/09/03 07:56:46;;;;;;;4.83;3.93;;;21.30;70.40;;;;;;5030782;28;20201;-73
2022/09/03 07:59:11;;;;;;;6.30;4.83;;;21.50;70.20;;;;;;5032309;28;20566;-73
2022/09/03 08:01:38;;;;;;;6.90;5.30;;;21.40;70.20;;;;;;5009818;28;20212;-72
2022/09/03 08:04:05;;;;;;;7.10;5.70;;;21.50;70.20;;;;;;5013796;28;20192;-72
2022/09/03 08:06:33;;;;;;;7.93;5.60;;;21.40;70.20;;;;;;5028465;28;20423;-73
2022/09/03 08:09:04;;;;;;;7.07;5.60;;;21.20;71.00;;;;;;5031480;28;20469;-74
2022/09/03 08:11:31;;;;;;;7.07;4.40;;;21.00;72.10;;;;;;5010124;28;20542;-74
2022/09/03 08:14:05;;;;;;;6.73;5.40;;;21.30;71.60;;;;;;5032397;28;20610;-73
2022/09/03 08:16:50;;;;;;;7.93;6.00;;;21.40;71.30;;;;;;5032956;28;20495;-71
2022/09/03 08:19:17;;;;;;;5.80;5.10;;;21.30;71.10;;;;;;5031696;28;20503;-73
2022/09/03 08:21:43;;;;;;;8.53;5.93;;;21.10;71.70;;;;;;5032103;28;20446;-74
2022/09/03 08:24:10;;;;;;;7.10;5.50;;;21.30;71.80;;;;;;5032084;28;20497;-74
2022/09/03 08:26:40;;;;;;;7.47;5.30;;;21.60;70.70;;;;;;5030420;28;20465;-74
2022/09/03 08:29:06;;;;;;;6.63;5.13;;;21.90;70.20;;;;;;5024010;28;20422;-75
2022/09/03 08:31:33;;;;;;;9.53;6.03;;;22.10;69.50;;;;;;5027546;28;20872;-73
2022/09/03 08:34:05;;;;;;;6.07;5.10;;;22.20;68.90;;;;;;5021826;28;20195;-74
2022/09/03 08:36:33;;;;;;;9.30;5.57;;;22.00;69.70;;;;;;5027147;28;20488;-74
2022/09/03 08:39:06;;;;;;;6.90;5.30;;;22.30;69.40;;;;;;5023209;28;20532;-74
2022/09/03 08:42:09;;;;;;;6.67;5.10;;;22.50;68.60;;;;;;5021051;28;20923;-73
2022/09/03 08:44:48;;;;;;;8.23;6.00;;;22.60;67.90;;;;;;4988481;28;20766;-73
2022/09/03 08:47:42;;;;;;;5.77;4.67;;;22.10;68.20;;;;;;5023377;28;20422;-74
2022/09/03 08:50:21;;;;;;;8.43;5.47;;;22.10;68.80;;;;;;5020610;28;20504;-71
2022/09/03 08:52:51;;;;;;;7.60;5.40;;;21.80;69.10;;;;;;5022254;28;20473;-72
2022/09/03 08:55:28;;;;;;;6.13;5.10;;;21.70;69.70;;;;;;5025405;28;20482;-72
2022/09/03 08:58:04;;;;;;;6.70;5.23;;;21.50;70.50;;;;;;5011196;28;20434;-73
2022/09/03 09:00:52;;;;;;;8.00;5.40;;;21.50;70.50;;;;;;5027191;28;20472;-73
2022/09/03 09:03:27;;;;;;;6.60;5.10;;;21.50;70.50;;;;;;5021968;28;20761;-74
2022/09/03 09:06:10;;;;;;;8.13;5.10;;;21.50;70.70;;;;;;5030383;28;20780;-72
2022/09/03 09:08:45;;;;;;;7.10;5.27;;;21.50;71.30;;;;;;5013094;28;20510;-71
2022/09/03 09:11:37;;;;;;;7.53;5.40;;;21.30;71.00;;;;;;5021791;28;20764;-72
2022/09/03 09:14:18;;;;;;;9.57;5.23;;;21.20;71.30;;;;;;5027052;28;20425;-72
2022/09/03 09:17:00;;;;;;;7.77;5.20;;;21.30;71.10;;;;;;5005618;28;20438;-74
2022/09/03 09:19:32;;;;;;;11.17;5.37;;;21.40;70.20;;;;;;5023498;28;20466;-72
2022/09/03 09:22:21;;;;;;;8.10;5.80;;;21.40;70.50;;;;;;5024183;28;20537;-73
2022/09/03 09:24:49;;;;;;;7.40;5.23;;;21.40;70.50;;;;;;5030795;28;20430;-74
2022/09/03 09:27:16;;;;;;;5.90;4.70;;;21.50;70.20;;;;;;5033097;28;20429;-73
2022/09/03 09:29:45;;;;;;;6.83;6.43;;;21.60;70.10;;;;;;5033461;28;20422;-74
2022/09/03 09:32:13;;;;;;;10.13;6.60;;;21.70;70.50;;;;;;5030531;28;20955;-74
2022/09/03 09:34:40;;;;;;;9.27;6.80;;;21.30;71.40;;;;;;5033730;28;20521;-71
2022/09/03 09:37:10;;;;;;;9.03;6.23;;;21.30;71.70;;;;;;5029931;28;20427;-74
2022/09/03 09:39:36;;;;;;;9.70;6.07;;;21.40;71.40;;;;;;5031329;28;20469;-72
2022/09/03 09:42:10;;;;;;;10.23;6.13;;;21.50;71.00;;;;;;5031607;28;20454;-72
2022/09/03 09:44:36;;;;;;;7.13;5.40;;;21.70;70.20;;;;;;5026859;28;20437;-71
2022/09/03 09:47:05;;;;;;;7.20;5.53;;;21.50;70.50;;;;;;5033459;28;20964;-72
2022/09/03 09:49:50;;;;;;;12.00;6.43;;;21.40;70.50;;;;;;5029478;28;20504;-72
2022/09/03 09:52:16;;;;;;;9.50;5.83;;;21.50;70.70;;;;;;5022736;28;20610;-72
2022/09/03 09:54:47;;;;;;;6.73;5.80;;;22.00;69.90;;;;;;5024776;28;20467;-72
2022/09/03 09:57:22;;;;;;;7.70;5.57;;;22.10;68.20;;;;;;5027067;28;20451;-72
2022/09/03 09:59:49;;;;;;;11.20;6.17;;;21.80;69.40;;;;;;5025691;28;20473;-71
2022/09/03 10:02:27;;;;;;;7.37;5.80;;;21.90;69.20;;;;;;5028645;28;20467;-73
2022/09/03 10:05:18;;;;;;;8.27;5.73;;;22.00;68.80;;;;;;5033404;28;20747;-73
2022/09/03 10:07:58;;;;;;;7.40;5.90;;;22.20;68.00;;;;;;5029768;28;20425;-73
2022/09/03 10:10:24;;;;;;;6.77;6.17;;;22.30;67.60;;;;;;5032633;28;20432;-71
2022/09/03 10:13:08;;;;;;;8.40;5.73;;;22.20;67.90;;;;;;5028882;28;20469;-73
2022/09/03 10:15:47;;;;;;;10.50;7.00;;;22.30;67.20;;;;;;5032477;28;20443;-74
2022/09/03 10:18:28;;;;;;;10.20;6.43;;;22.00;68.20;;;;;;5030181;28;20478;-73
2022/09/03 10:21:21;;;;;;;10.80;6.43;;;21.70;69.40;;;;;;5028903;28;20430;-73
2022/09/03 10:23:52;;;;;;;15.57;7.50;;;21.90;68.80;;;;;;5028569;28;20425;-72
2022/09/03 10:26:29;;;;;;;9.27;7.50;;;21.60;69.20;;;;;;5010321;28;20426;-72
2022/09/03 10:29:05;;;;;;;9.13;6.70;;;21.50;69.80;;;;;;5029965;28;20484;-71
2022/09/03 10:31:40;;;;;;;9.30;6.30;;;21.60;69.40;;;;;;5003915;28;20517;-73
2022/09/03 10:34:20;;;;;;;12.07;6.17;;;22.00;69.10;;;;;;5028333;28;20504;-74
2022/09/03 10:36:57;;;;;;;8.37;5.83;;;22.10;68.30;;;;;;5024725;28;20985;-72
2022/09/03 10:39:41;;;;;;;10.77;6.73;;;22.10;68.20;;;;;;5027322;28;20489;-71
2022/09/03 10:42:37;;;;;;;7.47;5.53;;;22.20;67.00;;;;;;5023287;28;20551;-71
2022/09/03 10:45:19;;;;;;;21.83;7.80;;;22.30;67.00;;;;;;5022859;28;20433;-71
2022/09/03 10:47:59;;;;;;;9.50;6.70;;;22.30;66.60;;;;;;5027098;28;20428;-71
2022/09/03 10:51:14;;;;;;;8.07;6.60;;;22.60;66.30;;;;;;5030500;28;20426;-71
2022/09/03 10:53:58;;;;;;;7.73;5.73;;;22.90;64.70;;;;;;5002994;28;20453;-71
2022/09/03 10:56:48;;;;;;;8.10;6.00;;;22.80;65.30;;;;;;5006928;28;20423;-72
2022/09/03 10:59:19;;;;;;;8.57;6.60;;;22.90;64.20;;;;;;5022175;28;20472;-73
2022/09/03 11:02:21;;;;;;;9.33;5.60;;;22.70;65.30;;;;;;5025856;28;20896;-72
2022/09/03 11:05:02;;;;;;;8.70;5.30;;;22.90;65.40;;;;;;5027050;28;20445;-72
2022/09/03 11:07:36;;;;;;;7.60;6.10;;;23.20;64.20;;;;;;5030255;28;20439;-74
2022/09/03 11:10:25;;;;;;;8.00;5.90;;;23.30;63.90;;;;;;5030311;28;20418;-73
2022/09/03 11:13:15;;;;;;;7.70;5.77;;;23.60;63.20;;;;;;5022140;28;20473;-71
2022/09/03 11:16:03;;;;;;;8.10;5.60;;;23.90;62.00;;;;;;5028745;28;20421;-71
2022/09/03 11:18:45;;;;;;;7.33;5.77;;;24.10;62.00;;;;;;5024737;28;21218;-70
2022/09/03 11:21:14;;;;;;;6.70;5.27;;;24.00;61.50;;;;;;5026150;28;20407;-72
2022/09/03 11:23:45;;;;;;;8.33;5.70;;;23.80;62.50;;;;;;5026566;28;20564;-72
2022/09/03 11:26:15;;;;;;;8.57;5.60;;;23.90;62.00;;;;;;5028725;28;20988;-72
2022/09/03 11:28:50;;;;;;;7.80;5.60;;;23.70;62.50;;;;;;5029918;28;20480;-73
2022/09/03 11:31:30;;;;;;;7.70;5.70;;;23.80;62.50;;;;;;5023791;28;20432;-73
2022/09/03 11:34:03;;;;;;;10.23;6.10;;;23.80;62.30;;;;;;5026922;28;20520;-72
2022/09/03 11:36:37;;;;;;;8.60;5.97;;;23.50;63.10;;;;;;5012547;28;20435;-73
2022/09/03 11:39:24;;;;;;;7.43;5.30;;;23.20;64.20;;;;;;5031419;28;20501;-71
2022/09/03 11:42:07;;;;;;;8.50;5.60;;;23.40;63.90;;;;;;5018191;28;20459;-74
2022/09/03 11:44:38;;;;;;;7.97;6.07;;;23.50;63.70;;;;;;5027222;28;20478;-74
2022/09/03 11:47:40;;;;;;;7.10;5.90;;;23.50;63.50;;;;;;5029302;28;20427;-73
2022/09/03 11:50:19;;;;;;;12.17;10.90;;;23.40;63.20;;;;;;5014890;28;20441;-73
2022/09/03 11:52:45;;;;;;;7.70;5.97;;;23.20;64.40;;;;;;5011236;28;20465;-74
2022/09/03 11:55:11;;;;;;;7.97;6.23;;;23.10;64.50;;;;;;5029576;28;20430;-74
2022/09/03 11:57:44;;;;;;;7.10;5.80;;;23.10;64.70;;;;;;5031717;28;21006;-72
2022/09/03 12:00:14;;;;;;;10.93;7.80;;;22.90;65.30;;;;;;5029210;28;20202;-71
2022/09/03 12:02:45;;;;;;;6.80;5.13;;;22.90;65.40;;;;;;5026905;28;20950;-72
2022/09/03 12:05:44;;;;;;;7.57;5.60;;;23.00;65.60;;;;;;5015233;28;20430;-73
2022/09/03 12:09:00;;;;;;;7.30;5.30;;;23.20;65.10;;;;;;5031438;28;20425;-73
2022/09/03 12:11:54;;;;;;;8.00;5.30;;;23.20;65.10;;;;;;4903603;29;20534;-74
2022/09/03 12:14:42;;;;;;;9.57;6.10;;;23.30;65.40;;;;;;4911540;29;20459;-75
2022/09/03 12:17:17;;;;;;;7.47;5.73;;;23.30;65.30;;;;;;4905180;29;20467;-75
2022/09/03 12:19:54;;;;;;;6.80;5.20;;;23.20;66.00;;;;;;4908110;29;20483;-74
2022/09/03 12:22:23;;;;;;;6.47;5.23;;;23.10;66.60;;;;;;4907806;29;20475;-74
2022/09/03 12:24:49;;;;;;;7.00;5.87;;;23.10;67.70;;;;;;4911127;29;20432;-74
2022/09/03 12:27:26;;;;;;;7.17;5.70;;;23.00;68.30;;;;;;4892800;29;21025;-74
2022/09/03 12:30:00;;;;;;;8.53;6.00;;;22.90;70.10;;;;;;4910240;29;20837;-72
2022/09/03 12:32:35;;;;;;;7.50;6.53;;;22.80;71.30;;;;;;4909538;29;20550;-75
2022/09/03 12:35:11;;;;;;;7.20;5.13;;;22.40;72.60;;;;;;4904602;29;21030;-74
2022/09/03 12:37:38;;;;;;;6.20;4.73;;;21.70;75.80;;;;;;4905572;29;20503;-73
2022/09/03 12:40:04;;;;;;;9.10;4.50;;;21.20;78.10;;;;;;4899325;29;20572;-74
2022/09/03 12:42:31;;;;;;;7.13;4.40;;;20.60;81.40;;;;;;4904319;29;20474;-74
2022/09/03 12:45:11;;;;;;;10.00;6.87;;;20.20;83.60;;;;;;4902778;29;20707;-75
2022/09/03 12:47:39;;;;;;;5.60;4.07;;;20.00;84.90;;;;;;4993345;28;20951;-75
2022/09/03 12:50:12;;;;;;;8.13;3.77;;;19.70;86.80;;;;;;5031047;28;20499;-75
2022/09/03 12:52:55;;;;;;;8.13;3.53;;;19.30;86.80;;;;;;5025984;28;21015;-74
2022/09/03 12:55:28;;;;;;;4.00;3.13;;;19.10;87.60;;;;;;5026719;28;20510;-75
2022/09/03 12:58:21;;;;;;;4.30;3.27;;;18.90;88.90;;;;;;5030396;28;20462;-73
2022/09/03 13:00:48;;;;;;;4.73;3.57;;;18.70;90.10;;;;;;5028183;28;20554;-74
2022/09/03 13:03:48;;;;;;;9.87;3.47;;;18.40;91.10;;;;;;5028854;28;20465;-73
2022/09/03 13:06:20;;;;;;;8.07;3.97;;;18.10;92.00;;;;;;5022878;28;20449;-74
2022/09/03 13:08:53;;;;;;;6.70;3.30;;;17.90;92.80;;;;;;5030666;28;20417;-75
2022/09/03 13:11:21;;;;;;;5.90;3.10;;;17.80;93.30;;;;;;5028679;28;20523;-74
2022/09/03 13:13:54;;;;;;;5.17;3.20;;;17.70;93.40;;;;;;5031044;28;20442;-73
2022/09/03 13:16:47;;;;;;;5.03;3.07;;;17.60;93.90;;;;;;5027485;28;20437;-74